createdAt,value
2023-09-14T00:00:01.151Z,98.41
2023-09-14T00:02:30.206Z,99.17
2023-09-14T00:04:58.173Z,98.37
2023-09-14T00:07:25.955Z,99.90
2023-09-14T00:09:53.758Z,99.85
2023-09-14T00:12:21.864Z,98.51
2023-09-14T00:14:49.625Z,97.44
2023-09-14T00:17:17.276Z,95.44
2023-09-14T00:19:46.571Z,99.68
2023-09-14T00:22:14.309Z,100.00
2023-09-14T00:24:42.095Z,99.14
2023-09-14T00:27:09.895Z,97.25
2023-09-14T00:29:37.770Z,96.24
2023-09-14T00:32:06.198Z,96.56
2023-09-14T00:34:33.952Z,97.53
2023-09-14T00:37:03.062Z,98.24
2023-09-14T00:39:32.894Z,99.19
2023-09-14T00:42:00.735Z,97.85
2023-09-14T00:44:28.444Z,98.51
2023-09-14T00:46:56.418Z,99.17
2023-09-14T00:49:24.477Z,98.02
2023-09-14T00:51:52.890Z,99.77
2023-09-14T00:54:22.279Z,100.00
2023-09-14T00:56:50.109Z,100.00
2023-09-14T00:59:17.839Z,99.47
2023-09-14T01:01:46.012Z,97.19
2023-09-14T01:04:14.243Z,97.42
2023-09-14T01:06:42.493Z,96.69
2023-09-14T01:09:11.304Z,98.20
2023-09-14T01:11:40.390Z,97.44
2023-09-14T01:14:15.743Z,98.65
2023-09-14T01:16:48.804Z,100.00
2023-09-14T01:19:39.435Z,100.00
2023-09-14T01:22:24.199Z,100.00
2023-09-14T01:25:00.395Z,100.00
2023-09-14T01:27:30.945Z,100.00
2023-09-14T01:30:00.183Z,100.00
2023-09-14T01:32:31.025Z,100.00
2023-09-14T01:34:58.907Z,100.00
2023-09-14T01:37:28.309Z,100.00
2023-09-14T01:39:57.996Z,100.00
2023-09-14T01:42:26.418Z,100.00
2023-09-14T01:44:56.138Z,100.00
2023-09-14T01:47:24.026Z,100.00
2023-09-14T01:49:52.065Z,100.00
2023-09-14T01:52:19.897Z,100.00
2023-09-14T01:54:48.289Z,100.00
2023-09-14T01:57:16.069Z,100.00
2023-09-14T01:59:44.493Z,100.00
2023-09-14T02:02:13.918Z,100.00
2023-09-14T02:04:42.925Z,100.00
2023-09-14T02:07:10.877Z,100.00
2023-09-14T02:09:39.403Z,100.00
2023-09-14T02:12:07.645Z,100.00
2023-09-14T02:14:35.963Z,100.00
2023-09-14T02:17:04.532Z,100.00
2023-09-14T02:19:33.737Z,100.00
2023-09-14T02:22:01.789Z,100.00
2023-09-14T02:24:30.290Z,100.00
2023-09-14T02:26:59.125Z,100.00
2023-09-14T02:29:26.891Z,100.00
2023-09-14T02:31:54.904Z,100.00
2023-09-14T02:34:23.300Z,100.00
2023-09-14T02:36:52.856Z,100.00
2023-09-14T02:39:20.725Z,100.00
2023-09-14T02:41:48.698Z,100.00
2023-09-14T02:44:16.653Z,100.00
2023-09-14T02:46:44.517Z,100.00
2023-09-14T02:49:12.370Z,100.00
2023-09-14T02:51:40.232Z,100.00
2023-09-14T02:54:09.724Z,100.00
2023-09-14T02:56:37.766Z,100.00
2023-09-14T02:59:44.207Z,100.00
2023-09-14T03:02:12.197Z,100.00
2023-09-14T03:04:40.163Z,100.00
2023-09-14T03:07:08.098Z,100.00
2023-09-14T03:09:38.211Z,100.00
2023-09-14T03:12:08.042Z,100.00
2023-09-14T03:14:36.325Z,100.00
2023-09-14T03:17:04.602Z,100.00
2023-09-14T03:19:33.049Z,100.00
2023-09-14T03:22:01.222Z,100.00
2023-09-14T03:24:29.116Z,100.00
2023-09-14T03:26:58.148Z,100.00
2023-09-14T03:29:26.045Z,100.00
2023-09-14T03:31:54.058Z,100.00
2023-09-14T03:34:22.632Z,100.00
2023-09-14T03:36:50.997Z,100.00
2023-09-14T03:39:19.184Z,100.00
2023-09-14T03:41:49.888Z,100.00
2023-09-14T03:44:18.984Z,100.00
2023-09-14T03:46:47.187Z,100.00
2023-09-14T03:49:15.337Z,100.00
2023-09-14T03:51:43.308Z,100.00
2023-09-14T03:54:11.531Z,100.00
2023-09-14T03:56:39.866Z,100.00
2023-09-14T03:59:07.800Z,100.00
2023-09-14T04:01:37.063Z,100.00
2023-09-14T04:04:05.445Z,100.00
2023-09-14T04:06:33.597Z,100.00
2023-09-14T04:09:01.339Z,100.00
2023-09-14T04:11:29.570Z,100.00
2023-09-14T04:13:57.323Z,100.00
2023-09-14T04:16:29.986Z,100.00
2023-09-14T04:19:02.201Z,100.00
2023-09-14T04:21:31.460Z,100.00
2023-09-14T04:23:59.344Z,100.00
2023-09-14T04:26:27.860Z,100.00
2023-09-14T04:28:56.138Z,100.00
2023-09-14T04:31:24.485Z,100.00
2023-09-14T04:33:52.293Z,100.00
2023-09-14T04:36:21.425Z,100.00
2023-09-14T04:38:49.858Z,100.00
2023-09-14T04:41:17.672Z,100.00
2023-09-14T04:43:45.697Z,100.00
2023-09-14T04:46:13.626Z,100.00
2023-09-14T04:48:43.654Z,100.00
2023-09-14T04:51:14.435Z,100.00
2023-09-14T04:53:43.708Z,100.00
2023-09-14T04:56:11.442Z,100.00
2023-09-14T04:58:40.821Z,100.00
2023-09-14T05:01:09.370Z,100.00
2023-09-14T05:03:37.468Z,100.00
2023-09-14T05:06:05.496Z,100.00
2023-09-14T05:08:33.868Z,100.00
2023-09-14T05:11:04.368Z,100.00
2023-09-14T05:13:32.169Z,100.00
2023-09-14T05:16:00.131Z,100.00
2023-09-14T05:18:29.427Z,100.00
2023-09-14T05:20:58.436Z,100.00
2023-09-14T05:23:26.880Z,100.00
2023-09-14T05:25:55.596Z,100.00
2023-09-14T05:28:25.434Z,100.00
2023-09-14T05:30:54.245Z,100.00
2023-09-14T05:33:22.415Z,100.00
2023-09-14T05:35:52.307Z,100.00
2023-09-14T05:38:21.176Z,100.00
2023-09-14T05:40:51.341Z,100.00
2023-09-14T05:43:20.302Z,100.00
2023-09-14T05:45:52.305Z,100.00
2023-09-14T05:48:20.363Z,100.00
2023-09-14T05:50:48.528Z,100.00
2023-09-14T05:53:19.347Z,100.00
2023-09-14T05:55:47.345Z,100.00
2023-09-14T05:58:15.062Z,100.00
2023-09-14T06:00:42.848Z,100.00
2023-09-14T06:03:12.096Z,100.00
2023-09-14T06:05:40.718Z,100.00
2023-09-14T06:08:08.498Z,100.00
2023-09-14T06:10:36.645Z,100.00
2023-09-14T06:13:05.548Z,100.00
2023-09-14T06:15:33.794Z,100.00
2023-09-14T06:18:01.864Z,100.00
2023-09-14T06:20:31.059Z,100.00
2023-09-14T06:22:58.811Z,100.00
2023-09-14T06:25:26.523Z,100.00
2023-09-14T06:27:54.408Z,100.00
2023-09-14T06:30:22.363Z,100.00
2023-09-14T06:32:50.116Z,100.00
2023-09-14T06:35:18.314Z,100.00
2023-09-14T06:37:47.560Z,100.00
2023-09-14T06:40:16.186Z,100.00
2023-09-14T06:42:44.494Z,100.00
2023-09-14T06:45:12.406Z,100.00
2023-09-14T06:47:40.416Z,100.00
2023-09-14T06:50:09.243Z,100.00
2023-09-14T06:52:37.493Z,100.00
2023-09-14T06:55:08.237Z,100.00
2023-09-14T06:57:36.512Z,100.00
2023-09-14T07:00:16.286Z,100.00
2023-09-14T07:02:44.915Z,100.00
2023-09-14T07:05:12.805Z,100.00
2023-09-14T07:07:41.261Z,100.00
2023-09-14T07:10:11.116Z,100.00
2023-09-14T07:12:38.987Z,100.00
2023-09-14T07:15:09.882Z,100.00
2023-09-14T07:17:38.280Z,100.00
2023-09-14T07:20:09.439Z,100.00
2023-09-14T07:22:38.832Z,100.00
2023-09-14T07:27:00.795Z,100.00
2023-09-14T07:29:29.644Z,100.00
2023-09-14T07:31:59.388Z,100.00
2023-09-14T07:34:27.662Z,100.00
2023-09-14T07:36:56.391Z,100.00
2023-09-14T07:39:25.213Z,100.00
2023-09-14T07:41:56.555Z,100.00
2023-09-14T07:44:27.313Z,100.00
2023-09-14T07:46:55.322Z,98.89
2023-09-14T07:49:24.315Z,99.90
2023-09-14T07:51:52.800Z,97.40
2023-09-14T07:54:23.784Z,99.06
2023-09-14T07:56:52.055Z,100.00
2023-09-14T07:59:21.421Z,97.72
2023-09-14T08:01:50.738Z,97.44
2023-09-14T08:04:19.523Z,100.00
2023-09-14T08:06:47.763Z,100.00
2023-09-14T08:09:15.594Z,100.00
2023-09-14T08:11:43.666Z,98.48
2023-09-14T08:14:11.638Z,98.87
2023-09-14T08:16:39.783Z,97.27
2023-09-14T08:19:09.053Z,95.80
2023-09-14T08:21:36.852Z,92.82
2023-09-14T08:24:05.159Z,92.77
2023-09-14T08:26:32.961Z,93.35
2023-09-14T08:29:01.209Z,93.39
2023-09-14T08:31:29.405Z,92.54
2023-09-14T08:33:57.497Z,89.72
2023-09-14T08:36:27.063Z,88.15
2023-09-14T08:39:03.455Z,88.78
2023-09-14T08:41:44.561Z,89.66
2023-09-14T08:44:14.730Z,88.32
2023-09-14T08:46:43.856Z,85.85
2023-09-14T08:49:13.891Z,86.18
2023-09-14T08:51:47.043Z,86.16
2023-09-14T08:54:17.668Z,87.47
2023-09-14T08:56:47.890Z,87.10
2023-09-14T08:59:21.219Z,84.83
2023-09-14T09:01:49.773Z,84.45
2023-09-14T09:04:19.115Z,82.67
2023-09-14T09:06:49.563Z,83.68
2023-09-14T09:09:20.324Z,79.25
2023-09-14T09:11:49.052Z,81.08
2023-09-14T09:14:17.099Z,80.62
2023-09-14T09:16:45.402Z,81.26
2023-09-14T09:19:14.088Z,78.24
2023-09-14T09:21:43.878Z,78.60
2023-09-14T09:24:16.260Z,79.72
2023-09-14T09:26:46.115Z,81.31
2023-09-14T09:29:18.330Z,78.99
2023-09-14T09:31:48.209Z,79.13
2023-09-14T09:34:16.700Z,77.32
2023-09-14T09:36:45.464Z,76.79
2023-09-14T09:39:14.932Z,75.92
2023-09-14T09:41:46.656Z,74.69
2023-09-14T09:44:16.882Z,75.25
2023-09-14T09:46:46.024Z,72.00
2023-09-14T09:49:24.281Z,70.88
2023-09-14T09:51:52.939Z,70.03
2023-09-14T09:54:24.922Z,70.69
2023-09-14T09:56:53.626Z,70.26
2023-09-14T09:59:24.498Z,71.43
2023-09-14T10:01:52.513Z,72.12
2023-09-14T10:04:20.629Z,73.43
2023-09-14T10:06:52.985Z,75.04
2023-09-14T10:09:22.594Z,71.92
2023-09-14T10:11:52.932Z,70.99
2023-09-14T10:14:23.699Z,69.61
2023-09-14T10:16:56.071Z,72.74
2023-09-14T10:19:26.834Z,70.72
2023-09-14T10:21:57.137Z,71.07
2023-09-14T10:24:28.118Z,70.04
2023-09-14T10:26:56.696Z,69.23
2023-09-14T10:29:27.819Z,68.08
2023-09-14T10:31:59.254Z,68.05
2023-09-14T10:34:30.511Z,71.98
2023-09-14T10:37:01.214Z,71.30
2023-09-14T10:39:30.359Z,74.10
2023-09-14T10:41:59.074Z,72.85
2023-09-14T10:44:28.569Z,71.13
2023-09-14T10:47:00.341Z,71.86
2023-09-14T10:49:33.218Z,71.19
2023-09-14T10:52:02.509Z,67.97
2023-09-14T10:54:32.994Z,64.29
2023-09-14T10:57:02.466Z,65.40
2023-09-14T10:59:48.398Z,63.86
2023-09-14T11:02:51.831Z,63.66
2023-09-14T11:05:21.785Z,62.59
2023-09-14T11:07:57.696Z,63.12
2023-09-14T11:10:29.851Z,61.29
2023-09-14T11:13:26.586Z,57.97
2023-09-14T11:15:59.718Z,57.80
2023-09-14T11:18:39.662Z,59.50
2023-09-14T11:21:28.674Z,57.15
2023-09-14T11:24:00.622Z,56.29
2023-09-14T11:26:34.048Z,56.07
2023-09-14T11:29:04.203Z,55.02
2023-09-14T11:31:54.865Z,54.05
2023-09-14T11:34:29.089Z,55.21
2023-09-14T11:37:02.745Z,53.43
2023-09-14T11:39:38.236Z,51.28
2023-09-14T11:42:09.961Z,53.37
2023-09-14T11:44:53.675Z,52.31
2023-09-14T11:47:28.416Z,52.85
2023-09-14T11:50:07.116Z,52.58
2023-09-14T11:52:36.970Z,50.69
2023-09-14T11:55:07.864Z,49.55
2023-09-14T11:57:35.895Z,52.04
2023-09-14T12:00:07.403Z,50.60
2023-09-14T12:02:35.246Z,51.51
2023-09-14T12:05:03.189Z,50.46
2023-09-14T12:07:31.845Z,48.26
2023-09-14T12:10:00.279Z,47.98
2023-09-14T12:12:31.172Z,47.39
2023-09-14T12:14:59.939Z,47.35
2023-09-14T12:17:29.303Z,46.21
2023-09-14T12:20:01.236Z,45.77
2023-09-14T12:22:33.680Z,44.77
2023-09-14T12:25:04.721Z,44.22
2023-09-14T12:27:35.913Z,44.53
2023-09-14T12:30:06.429Z,47.72
2023-09-14T12:32:36.011Z,46.92
2023-09-14T12:35:05.340Z,49.81
2023-09-14T12:37:33.636Z,48.45
2023-09-14T12:40:07.869Z,48.29
2023-09-14T12:42:37.339Z,48.50
2023-09-14T12:45:12.420Z,50.60
2023-09-14T12:47:41.411Z,47.61
2023-09-14T12:50:16.909Z,47.64
2023-09-14T12:52:45.704Z,47.13
2023-09-14T12:55:18.701Z,48.46
2023-09-14T12:57:49.851Z,47.40
2023-09-14T13:00:18.972Z,47.44
2023-09-14T13:02:49.547Z,48.76
2023-09-14T13:05:18.646Z,47.85
2023-09-14T13:07:49.682Z,48.78
2023-09-14T13:10:21.160Z,46.88
2023-09-14T13:12:55.177Z,46.72
2023-09-14T13:15:25.227Z,45.55
2023-09-14T13:17:56.025Z,45.62
2023-09-14T13:20:25.371Z,47.42
2023-09-14T13:22:56.001Z,46.03
2023-09-14T13:25:26.811Z,45.61
2023-09-14T13:27:57.569Z,45.83
2023-09-14T13:30:29.704Z,44.04
2023-09-14T13:32:58.104Z,46.65
2023-09-14T13:35:27.729Z,46.96
2023-09-14T13:37:58.590Z,46.11
2023-09-14T13:40:29.467Z,47.98
2023-09-14T13:43:00.685Z,47.97
2023-09-14T13:45:30.463Z,46.53
2023-09-14T13:47:59.210Z,46.20
2023-09-14T13:50:27.555Z,46.66
2023-09-14T13:52:56.834Z,46.55
2023-09-14T13:55:24.589Z,46.18
2023-09-14T13:57:52.386Z,47.20
2023-09-14T14:00:21.965Z,46.03
2023-09-14T14:02:52.040Z,46.50
2023-09-14T14:05:20.456Z,48.20
2023-09-14T14:07:48.287Z,48.29
2023-09-14T14:10:15.992Z,49.23
2023-09-14T14:12:44.722Z,49.06
2023-09-14T14:15:13.537Z,48.26
2023-09-14T14:17:42.841Z,49.61
2023-09-14T14:20:11.223Z,49.60
2023-09-14T14:22:39.199Z,48.22
2023-09-14T14:25:08.720Z,49.55
2023-09-14T14:27:40.158Z,49.00
2023-09-14T14:30:09.782Z,49.59
2023-09-14T14:32:38.378Z,49.52
2023-09-14T14:35:09.653Z,48.47
2023-09-14T14:37:37.792Z,49.75
2023-09-14T14:40:07.130Z,50.66
2023-09-14T14:42:36.281Z,50.98
2023-09-14T14:45:07.287Z,50.99
2023-09-14T14:47:35.197Z,50.42
2023-09-14T14:50:04.793Z,51.82
2023-09-14T14:52:33.866Z,51.00
2023-09-14T14:55:02.731Z,51.19
2023-09-14T14:57:31.046Z,52.97
2023-09-14T14:59:59.268Z,51.33
2023-09-14T15:02:26.978Z,53.40
2023-09-14T15:04:55.413Z,52.58
2023-09-14T15:07:23.312Z,54.43
2023-09-14T15:09:52.510Z,54.54
2023-09-14T15:12:20.630Z,54.97
2023-09-14T15:14:48.303Z,54.29
2023-09-14T15:17:15.970Z,54.41
2023-09-14T15:19:44.740Z,55.45
2023-09-14T15:22:12.911Z,57.60
2023-09-14T15:24:40.627Z,56.29
2023-09-14T15:27:09.797Z,56.96
2023-09-14T15:29:38.436Z,58.22
2023-09-14T15:32:06.633Z,58.67
2023-09-14T15:34:34.856Z,57.06
2023-09-14T15:37:03.610Z,58.56
2023-09-14T15:39:32.275Z,58.71
2023-09-14T15:42:00.273Z,58.34
2023-09-14T15:44:30.042Z,61.53
2023-09-14T15:46:58.041Z,59.00
2023-09-14T15:49:26.073Z,58.58
2023-09-14T15:51:54.831Z,59.53
2023-09-14T15:54:23.584Z,60.34
2023-09-14T15:56:52.250Z,60.75
2023-09-14T15:59:19.939Z,60.19
2023-09-14T16:01:49.191Z,60.84
2023-09-14T16:04:17.422Z,60.71
2023-09-14T16:06:50.225Z,60.29
2023-09-14T16:09:18.190Z,60.61
2023-09-14T16:11:46.281Z,62.04
2023-09-14T16:14:15.667Z,60.49
2023-09-14T16:16:45.801Z,61.00
2023-09-14T16:19:15.490Z,62.76
2023-09-14T16:21:44.829Z,64.15
2023-09-14T16:24:13.240Z,65.36
2023-09-14T16:26:42.423Z,64.95
2023-09-14T16:29:10.752Z,66.77
2023-09-14T16:31:38.524Z,63.88
2023-09-14T16:34:06.734Z,61.78
2023-09-14T16:36:35.937Z,63.68
2023-09-14T16:39:08.156Z,64.34
2023-09-14T16:41:38.271Z,65.85
2023-09-14T16:44:07.236Z,63.12
2023-09-14T16:46:35.386Z,63.87
2023-09-14T16:49:20.299Z,65.64
2023-09-14T16:51:51.428Z,63.83
2023-09-14T16:54:19.559Z,66.62
2023-09-14T16:56:47.275Z,66.46
2023-09-14T16:59:15.145Z,67.18
2023-09-14T17:01:43.209Z,65.41
2023-09-14T17:04:11.042Z,66.25
2023-09-14T17:06:38.950Z,66.60
2023-09-14T17:09:08.660Z,67.57
2023-09-14T17:11:36.638Z,68.84
2023-09-14T17:14:05.058Z,69.96
2023-09-14T17:16:34.338Z,70.30
2023-09-14T17:19:02.267Z,68.11
2023-09-14T17:21:30.609Z,70.08
2023-09-14T17:23:59.039Z,70.30
2023-09-14T17:26:28.369Z,70.89
2023-09-14T17:28:57.967Z,70.54
2023-09-14T17:31:26.602Z,70.73
2023-09-14T17:33:54.358Z,73.07
2023-09-14T17:36:22.357Z,73.72
2023-09-14T17:38:50.077Z,75.58
2023-09-14T17:41:17.869Z,75.20
2023-09-14T17:43:47.426Z,75.74
2023-09-14T17:46:15.153Z,75.58
2023-09-14T17:48:43.842Z,76.47
2023-09-14T17:51:13.104Z,76.79
2023-09-14T17:53:41.101Z,76.75
2023-09-14T17:56:08.926Z,76.99
2023-09-14T17:58:36.909Z,76.89
2023-09-14T18:01:07.175Z,77.15
2023-09-14T18:03:35.256Z,77.53
2023-09-14T18:06:03.276Z,77.86
2023-09-14T18:08:31.036Z,78.62
2023-09-14T18:10:59.281Z,78.71
2023-09-14T18:13:26.967Z,79.40
2023-09-14T18:15:55.357Z,80.82
2023-09-14T18:18:24.989Z,80.30
2023-09-14T18:20:53.406Z,80.30
2023-09-14T18:23:23.044Z,79.73
2023-09-14T18:25:54.088Z,80.07
2023-09-14T18:28:21.935Z,80.50
2023-09-14T18:30:49.718Z,80.62
2023-09-14T18:33:17.802Z,80.65
2023-09-14T18:35:46.981Z,80.72
2023-09-14T18:38:15.014Z,81.45
2023-09-14T18:40:43.128Z,81.34
2023-09-14T18:43:11.240Z,81.26
2023-09-14T18:45:39.123Z,82.18
2023-09-14T18:48:08.414Z,83.58
2023-09-14T18:50:38.704Z,83.63
2023-09-14T18:53:10.149Z,84.15
2023-09-14T18:55:37.944Z,85.07
2023-09-14T18:58:06.406Z,85.80
2023-09-14T19:00:34.319Z,86.78
2023-09-14T19:03:02.071Z,87.73
2023-09-14T19:05:30.272Z,87.66
2023-09-14T19:07:58.164Z,88.46
2023-09-14T19:10:27.517Z,88.97
2023-09-14T19:12:55.632Z,89.13
2023-09-14T19:15:26.199Z,90.09
2023-09-14T19:17:54.925Z,91.16
2023-09-14T19:20:22.669Z,90.74
2023-09-14T19:22:50.359Z,90.26
2023-09-14T19:25:18.154Z,91.26
2023-09-14T19:27:47.233Z,92.01
2023-09-14T19:30:15.250Z,93.73
2023-09-14T19:32:43.563Z,92.83
2023-09-14T19:35:11.608Z,93.44
2023-09-14T19:37:39.729Z,93.32
2023-09-14T19:40:08.559Z,93.79
2023-09-14T19:42:36.373Z,94.38
2023-09-14T19:45:06.466Z,94.48
2023-09-14T19:47:34.694Z,94.79
2023-09-14T19:50:05.882Z,94.71
2023-09-14T19:52:34.269Z,94.24
2023-09-14T19:55:03.590Z,95.07
2023-09-14T19:57:31.570Z,95.40
2023-09-14T20:00:00.114Z,95.06
2023-09-14T20:02:29.206Z,95.36
2023-09-14T20:04:57.140Z,93.91
2023-09-14T20:07:25.696Z,94.62
2023-09-14T20:09:53.826Z,95.81
2023-09-14T20:12:22.090Z,93.93
2023-09-14T20:14:49.918Z,94.70
2023-09-14T20:17:17.794Z,94.43
2023-09-14T20:19:47.268Z,95.49
2023-09-14T20:22:16.550Z,96.11
2023-09-14T20:24:45.804Z,97.21
2023-09-14T20:27:14.049Z,95.81
2023-09-14T20:29:42.054Z,96.82
2023-09-14T20:32:09.912Z,97.72
2023-09-14T20:34:37.941Z,97.99
2023-09-14T20:37:08.270Z,96.33
2023-09-14T20:39:36.342Z,96.77
2023-09-14T20:42:05.090Z,97.51
2023-09-14T20:44:33.017Z,99.25
2023-09-14T20:47:00.777Z,98.85
2023-09-14T20:49:29.630Z,99.83
2023-09-14T20:51:57.515Z,97.74
2023-09-14T20:54:26.835Z,98.37
2023-09-14T20:56:54.766Z,97.95
2023-09-14T20:59:23.795Z,97.88
2023-09-14T21:01:52.336Z,99.45
2023-09-14T21:04:20.212Z,99.87
2023-09-14T21:06:48.181Z,100.00
2023-09-14T21:09:16.426Z,100.00
2023-09-14T21:11:45.600Z,100.00
2023-09-14T21:14:13.391Z,100.00
2023-09-14T21:16:41.205Z,100.00
2023-09-14T21:19:09.076Z,100.00
2023-09-14T21:21:38.020Z,100.00
2023-09-14T21:24:06.118Z,100.00
2023-09-14T21:26:33.861Z,100.00
2023-09-14T21:29:02.986Z,100.00
2023-09-14T21:31:30.902Z,100.00
2023-09-14T21:33:58.716Z,100.00
2023-09-14T21:36:26.511Z,100.00
2023-09-14T21:38:55.001Z,100.00
2023-09-14T21:41:22.859Z,100.00
2023-09-14T21:43:50.609Z,100.00
2023-09-14T21:46:19.844Z,100.00
2023-09-14T21:48:47.978Z,100.00
2023-09-14T21:51:16.057Z,100.00
2023-09-14T21:53:44.333Z,100.00
2023-09-14T21:56:12.164Z,100.00
2023-09-14T21:58:39.984Z,100.00
2023-09-14T22:01:07.822Z,100.00
2023-09-14T22:03:50.550Z,100.00
2023-09-14T22:08:51.306Z,100.00
2023-09-14T22:11:19.086Z,100.00
2023-09-14T22:13:46.930Z,100.00
2023-09-14T22:16:14.774Z,100.00
2023-09-14T22:18:45.099Z,100.00
2023-09-14T22:21:14.774Z,100.00
2023-09-14T22:23:42.870Z,100.00
2023-09-14T22:26:11.530Z,100.00
2023-09-14T22:28:39.441Z,100.00
2023-09-14T22:31:12.178Z,100.00
2023-09-14T22:33:40.797Z,100.00
2023-09-14T22:36:09.994Z,100.00
2023-09-14T22:38:38.011Z,100.00
2023-09-14T22:41:05.744Z,100.00
2023-09-14T22:43:33.647Z,100.00
2023-09-14T22:46:01.816Z,100.00
2023-09-14T22:48:30.131Z,100.00
2023-09-14T22:51:14.653Z,100.00
2023-09-14T22:53:42.692Z,100.00
2023-09-14T22:56:15.927Z,100.00
2023-09-14T22:58:45.263Z,100.00
2023-09-14T23:01:13.966Z,100.00
2023-09-14T23:03:43.613Z,100.00
2023-09-14T23:06:14.036Z,100.00
2023-09-14T23:08:42.685Z,100.00
2023-09-14T23:11:13.741Z,100.00
2023-09-14T23:13:41.503Z,100.00
2023-09-14T23:16:10.076Z,100.00
2023-09-14T23:18:38.832Z,100.00
2023-09-14T23:21:06.723Z,100.00
2023-09-14T23:23:35.824Z,100.00
2023-09-14T23:26:04.533Z,100.00
2023-09-14T23:28:32.227Z,100.00
2023-09-14T23:31:04.441Z,100.00
2023-09-14T23:33:35.559Z,100.00
2023-09-14T23:36:08.610Z,100.00
2023-09-14T23:38:38.458Z,100.00
2023-09-14T23:41:06.344Z,100.00
2023-09-14T23:43:34.585Z,100.00
2023-09-14T23:46:04.634Z,100.00
2023-09-14T23:48:33.258Z,100.00
2023-09-14T23:51:01.485Z,100.00
2023-09-14T23:53:29.542Z,100.00
2023-09-14T23:55:58.676Z,100.00
2023-09-14T23:58:26.488Z,100.00
